sensor_id;sensor_type;location;lat;lon;timestamp;temperature;humidity
61339;DHT22;47213;52.362;4.606;2023-04-26T00:00:05;8.80;11.90
61339;DHT22;47213;52.362;4.606;2023-04-26T00:05:05;8.90;11.90
61339;DHT22;47213;52.362;4.606;2023-04-26T00:10:05;8.70;14.80
61339;DHT22;47213;52.362;4.606;2023-04-26T00:15:05;8.60;15.30
61339;DHT22;47213;52.362;4.606;2023-04-26T00:25:05;8.40;13.10
61339;DHT22;47213;52.362;4.606;2023-04-26T00:40:05;8.30;13.00
61339;DHT22;47213;52.362;4.606;2023-04-26T00:45:05;8.20;15.10
61339;DHT22;47213;52.362;4.606;2023-04-26T00:50:05;8.10;13.60
61339;DHT22;47213;52.362;4.606;2023-04-26T00:55:05;8.00;14.90
61339;DHT22;47213;52.362;4.606;2023-04-26T01:00:05;7.90;15.50
61339;DHT22;47213;52.362;4.606;2023-04-26T01:20:05;7.70;13.80
61339;DHT22;47213;52.362;4.606;2023-04-26T01:30:05;7.60;16.10
61339;DHT22;47213;52.362;4.606;2023-04-26T01:50:05;7.50;17.00
61339;DHT22;47213;52.362;4.606;2023-04-26T01:55:05;7.60;17.00
61339;DHT22;47213;52.362;4.606;2023-04-26T02:00:05;7.40;17.00
61339;DHT22;47213;52.362;4.606;2023-04-26T02:05:05;7.50;17.50
61339;DHT22;47213;52.362;4.606;2023-04-26T02:10:05;7.30;18.30
61339;DHT22;47213;52.362;4.606;2023-04-26T02:15:05;7.20;18.30
61339;DHT22;47213;52.362;4.606;2023-04-26T02:20:05;7.00;18.10
61339;DHT22;47213;52.362;4.606;2023-04-26T02:25:05;6.90;18.10
61339;DHT22;47213;52.362;4.606;2023-04-26T02:35:05;6.70;18.70
61339;DHT22;47213;52.362;4.606;2023-04-26T02:45:05;6.80;20.00
61339;DHT22;47213;52.362;4.606;2023-04-26T03:00:05;6.70;20.30
61339;DHT22;47213;52.362;4.606;2023-04-26T03:10:05;6.60;20.10
61339;DHT22;47213;52.362;4.606;2023-04-26T03:15:05;6.80;20.10
61339;DHT22;47213;52.362;4.606;2023-04-26T03:20:05;7.00;19.80
61339;DHT22;47213;52.362;4.606;2023-04-26T03:25:05;7.30;19.10
61339;DHT22;47213;52.362;4.606;2023-04-26T03:30:05;7.40;18.40
61339;DHT22;47213;52.362;4.606;2023-04-26T03:35:05;7.60;17.60
61339;DHT22;47213;52.362;4.606;2023-04-26T03:40:06;7.50;17.60
61339;DHT22;47213;52.362;4.606;2023-04-26T03:45:05;7.30;17.60
61339;DHT22;47213;52.362;4.606;2023-04-26T03:50:06;7.20;17.90
61339;DHT22;47213;52.362;4.606;2023-04-26T04:00:05;7.00;19.70
61339;DHT22;47213;52.362;4.606;2023-04-26T04:05:05;7.20;19.70
61339;DHT22;47213;52.362;4.606;2023-04-26T04:20:05;7.30;18.70
61339;DHT22;47213;52.362;4.606;2023-04-26T04:30:05;7.20;19.40
61339;DHT22;47213;52.362;4.606;2023-04-26T04:40:05;7.30;19.30
61339;DHT22;47213;52.362;4.606;2023-04-26T04:45:06;7.40;19.10
61339;DHT22;47213;52.362;4.606;2023-04-26T04:50:06;7.50;19.20
61339;DHT22;47213;52.362;4.606;2023-04-26T04:55:05;7.70;19.20
61339;DHT22;47213;52.362;4.606;2023-04-26T05:00:05;7.60;19.60
61339;DHT22;47213;52.362;4.606;2023-04-26T05:10:05;7.50;20.00
61339;DHT22;47213;52.362;4.606;2023-04-26T05:15:06;7.60;20.70
61339;DHT22;47213;52.362;4.606;2023-04-26T05:25:06;7.70;21.50
61339;DHT22;47213;52.362;4.606;2023-04-26T05:30:06;7.80;21.50
61339;DHT22;47213;52.362;4.606;2023-04-26T05:35:05;7.90;21.00
61339;DHT22;47213;52.362;4.606;2023-04-26T05:40:06;8.10;21.00
61339;DHT22;47213;52.362;4.606;2023-04-26T05:45:06;8.40;20.10
61339;DHT22;47213;52.362;4.606;2023-04-26T05:50:06;8.50;17.00
61339;DHT22;47213;52.362;4.606;2023-04-26T06:00:06;8.60;7.60
61339;DHT22;47213;52.362;4.606;2023-04-26T06:05:06;8.80;7.60
61339;DHT22;47213;52.362;4.606;2023-04-26T06:10:06;8.90;7.00
61339;DHT22;47213;52.362;4.606;2023-04-26T06:15:06;9.10;27.10
61339;DHT22;47213;52.362;4.606;2023-04-26T06:25:06;9.20;23.40
61339;DHT22;47213;52.362;4.606;2023-04-26T06:30:06;9.30;22.80
61339;DHT22;47213;52.362;4.606;2023-04-26T06:35:06;9.50;19.50
61339;DHT22;47213;52.362;4.606;2023-04-26T06:45:06;9.40;19.30
61339;DHT22;47213;52.362;4.606;2023-04-26T06:50:06;9.30;20.30
61339;DHT22;47213;52.362;4.606;2023-04-26T06:55:06;9.10;21.90
61339;DHT22;47213;52.362;4.606;2023-04-26T07:00:06;9.00;22.30
61339;DHT22;47213;52.362;4.606;2023-04-26T07:05:06;9.20;24.20
61339;DHT22;47213;52.362;4.606;2023-04-26T07:10:06;9.40;24.20
61339;DHT22;47213;52.362;4.606;2023-04-26T07:15:06;9.30;21.40
61339;DHT22;47213;52.362;4.606;2023-04-26T07:20:06;9.20;20.10
61339;DHT22;47213;52.362;4.606;2023-04-26T07:25:06;9.30;18.30
61339;DHT22;47213;52.362;4.606;2023-04-26T07:30:06;9.60;18.30
61339;DHT22;47213;52.362;4.606;2023-04-26T07:40:06;9.50;13.70
61339;DHT22;47213;52.362;4.606;2023-04-26T07:45:06;9.90;14.60
61339;DHT22;47213;52.362;4.606;2023-04-26T07:50:06;10.10;14.60
61339;DHT22;47213;52.362;4.606;2023-04-26T07:55:06;10.20;10.50
61339;DHT22;47213;52.362;4.606;2023-04-26T08:00:06;9.60;10.50
61339;DHT22;47213;52.362;4.606;2023-04-26T08:05:06;10.20;9.70
61339;DHT22;47213;52.362;4.606;2023-04-26T08:10:06;10.40;10.50
61339;DHT22;47213;52.362;4.606;2023-04-26T08:15:06;10.50;10.50
61339;DHT22;47213;52.362;4.606;2023-04-26T08:20:06;10.40;10.10
61339;DHT22;47213;52.362;4.606;2023-04-26T08:25:06;10.70;10.10
61339;DHT22;47213;52.362;4.606;2023-04-26T08:30:06;11.00;5.10
61339;DHT22;47213;52.362;4.606;2023-04-26T08:35:06;11.50;5.90
61339;DHT22;47213;52.362;4.606;2023-04-26T08:40:06;11.70;5.50
61339;DHT22;47213;52.362;4.606;2023-04-26T08:45:06;11.50;5.50
61339;DHT22;47213;52.362;4.606;2023-04-26T08:55:06;11.70;4.80
61339;DHT22;47213;52.362;4.606;2023-04-26T09:00:06;11.10;22.80
61339;DHT22;47213;52.362;4.606;2023-04-26T09:05:06;11.60;3.60
61339;DHT22;47213;52.362;4.606;2023-04-26T09:15:06;11.70;26.20
61339;DHT22;47213;52.362;4.606;2023-04-26T09:25:06;12.50;24.50
61339;DHT22;47213;52.362;4.606;2023-04-26T09:30:14;12.00;20.90
61339;DHT22;47213;52.362;4.606;2023-04-26T09:35:06;11.80;20.90
61339;DHT22;47213;52.362;4.606;2023-04-26T09:40:08;12.60;22.50
61339;DHT22;47213;52.362;4.606;2023-04-26T09:45:06;12.50;19.50
61339;DHT22;47213;52.362;4.606;2023-04-26T09:50:06;12.70;17.70
61339;DHT22;47213;52.362;4.606;2023-04-26T09:55:06;-0.40;18.70
61339;DHT22;47213;52.362;4.606;2023-04-26T10:00:06;-0.10;16.40
61339;DHT22;47213;52.362;4.606;2023-04-26T10:05:06;-0.30;15.90
61339;DHT22;47213;52.362;4.606;2023-04-26T10:10:06;-1.10;15.90
61339;DHT22;47213;52.362;4.606;2023-04-26T10:15:07;-3.20;13.30
61339;DHT22;47213;52.362;4.606;2023-04-26T10:20:09;-6.30;10.00
61339;DHT22;47213;52.362;4.606;2023-04-26T10:25:06;-10.40;24.80
61339;DHT22;47213;52.362;4.606;2023-04-26T10:30:07;-7.80;24.70
61339;DHT22;47213;52.362;4.606;2023-04-26T10:40:23;-8.20;3.10
61339;DHT22;47213;52.362;4.606;2023-04-26T10:50:07;-9.30;23.30
61339;DHT22;47213;52.362;4.606;2023-04-26T10:55:06;-8.80;22.30
61339;DHT22;47213;52.362;4.606;2023-04-26T11:05:07;-9.90;22.50
61339;DHT22;47213;52.362;4.606;2023-04-26T11:10:07;-11.40;22.50
61339;DHT22;47213;52.362;4.606;2023-04-26T11:15:06;-11.30;20.50
61339;DHT22;47213;52.362;4.606;2023-04-26T11:20:08;-11.40;19.90
61339;DHT22;47213;52.362;4.606;2023-04-26T11:25:06;-11.80;19.70
61339;DHT22;47213;52.362;4.606;2023-04-26T11:30:07;-11.50;20.20
61339;DHT22;47213;52.362;4.606;2023-04-26T11:35:06;1.50;18.60
61339;DHT22;47213;52.362;4.606;2023-04-26T11:40:10;-12.60;18.60
61339;DHT22;47213;52.362;4.606;2023-04-26T11:45:07;-12.20;16.40
61339;DHT22;47213;52.362;4.606;2023-04-26T11:50:07;-12.10;17.10
61339;DHT22;47213;52.362;4.606;2023-04-26T11:55:07;-11.30;17.40
61339;DHT22;47213;52.362;4.606;2023-04-26T12:05:07;-7.40;19.80
61339;DHT22;47213;52.362;4.606;2023-04-26T12:10:12;-6.80;21.20
61339;DHT22;47213;52.362;4.606;2023-04-26T12:15:09;-5.20;23.00
61339;DHT22;47213;52.362;4.606;2023-04-26T12:20:09;-4.50;25.10
61339;DHT22;47213;52.362;4.606;2023-04-26T12:25:07;-4.40;2.10
61339;DHT22;47213;52.362;4.606;2023-04-26T12:30:07;-3.60;5.10
61339;DHT22;47213;52.362;4.606;2023-04-26T12:35:07;-2.90;6.00
61339;DHT22;47213;52.362;4.606;2023-04-26T12:40:07;-2.80;8.70
61339;DHT22;47213;52.362;4.606;2023-04-26T12:45:07;-2.90;6.80
61339;DHT22;47213;52.362;4.606;2023-04-26T12:50:07;-2.10;6.80
61339;DHT22;47213;52.362;4.606;2023-04-26T12:55:07;-2.70;9.80
61339;DHT22;47213;52.362;4.606;2023-04-26T13:00:08;-3.00;9.80
61339;DHT22;47213;52.362;4.606;2023-04-26T13:05:07;-3.50;8.80
61339;DHT22;47213;52.362;4.606;2023-04-26T13:10:07;-3.80;8.30
61339;DHT22;47213;52.362;4.606;2023-04-26T13:15:07;-3.50;8.60
61339;DHT22;47213;52.362;4.606;2023-04-26T13:20:07;-3.40;9.10
61339;DHT22;47213;52.362;4.606;2023-04-26T13:25:07;-3.30;9.50
61339;DHT22;47213;52.362;4.606;2023-04-26T13:30:07;-3.40;7.90
61339;DHT22;47213;52.362;4.606;2023-04-26T13:40:07;-3.20;8.50
61339;DHT22;47213;52.362;4.606;2023-04-26T13:45:07;-3.60;9.20
61339;DHT22;47213;52.362;4.606;2023-04-26T13:50:07;-3.90;7.60
61339;DHT22;47213;52.362;4.606;2023-04-26T13:55:07;-4.10;7.00
61339;DHT22;47213;52.362;4.606;2023-04-26T14:00:07;-3.90;5.90
61339;DHT22;47213;52.362;4.606;2023-04-26T14:05:07;-3.60;5.70
61339;DHT22;47213;52.362;4.606;2023-04-26T14:10:07;-3.40;5.10
61339;DHT22;47213;52.362;4.606;2023-04-26T14:15:07;-3.60;5.00
61339;DHT22;47213;52.362;4.606;2023-04-26T14:20:07;-3.90;5.00
61339;DHT22;47213;52.362;4.606;2023-04-26T14:25:07;-3.70;5.30
61339;DHT22;47213;52.362;4.606;2023-04-26T14:30:07;-4.10;5.30
61339;DHT22;47213;52.362;4.606;2023-04-26T14:40:07;-3.80;5.00
61339;DHT22;47213;52.362;4.606;2023-04-26T14:45:07;-3.50;5.20
61339;DHT22;47213;52.362;4.606;2023-04-26T14:50:07;-3.30;6.40
61339;DHT22;47213;52.362;4.606;2023-04-26T14:55:07;-2.80;7.40
61339;DHT22;47213;52.362;4.606;2023-04-26T15:00:07;-2.30;8.50
61339;DHT22;47213;52.362;4.606;2023-04-26T15:05:07;-2.40;8.50
61339;DHT22;47213;52.362;4.606;2023-04-26T15:10:07;-2.20;9.70
61339;DHT22;47213;52.362;4.606;2023-04-26T15:15:07;-2.60;11.10
61339;DHT22;47213;52.362;4.606;2023-04-26T15:20:07;-2.50;9.80
61339;DHT22;47213;52.362;4.606;2023-04-26T15:25:07;-2.70;9.90
61339;DHT22;47213;52.362;4.606;2023-04-26T15:30:07;-2.20;10.30
61339;DHT22;47213;52.362;4.606;2023-04-26T15:35:09;-2.50;10.60
61339;DHT22;47213;52.362;4.606;2023-04-26T15:40:07;-2.60;10.60
61339;DHT22;47213;52.362;4.606;2023-04-26T15:45:07;-2.40;9.90
61339;DHT22;47213;52.362;4.606;2023-04-26T15:50:07;-2.10;9.90
61339;DHT22;47213;52.362;4.606;2023-04-26T16:00:07;-2.00;10.10
61339;DHT22;47213;52.362;4.606;2023-04-26T16:05:07;-1.90;10.50
61339;DHT22;47213;52.362;4.606;2023-04-26T16:10:07;-1.50;11.40
61339;DHT22;47213;52.362;4.606;2023-04-26T16:15:08;-1.40;11.80
61339;DHT22;47213;52.362;4.606;2023-04-26T16:20:07;-1.60;11.80
61339;DHT22;47213;52.362;4.606;2023-04-26T16:25:07;-1.50;10.70
61339;DHT22;47213;52.362;4.606;2023-04-26T16:30:07;-1.40;10.50
61339;DHT22;47213;52.362;4.606;2023-04-26T16:40:07;-1.60;10.30
61339;DHT22;47213;52.362;4.606;2023-04-26T16:45:08;-1.30;10.30
61339;DHT22;47213;52.362;4.606;2023-04-26T16:50:07;-1.20;10.70
61339;DHT22;47213;52.362;4.606;2023-04-26T16:55:07;-1.30;11.10
61339;DHT22;47213;52.362;4.606;2023-04-26T17:15:07;-1.00;12.00
61339;DHT22;47213;52.362;4.606;2023-04-26T17:20:07;-0.90;12.00
61339;DHT22;47213;52.362;4.606;2023-04-26T17:25:07;-0.80;12.00
61339;DHT22;47213;52.362;4.606;2023-04-26T17:30:07;-0.70;12.00
61339;DHT22;47213;52.362;4.606;2023-04-26T17:35:07;-0.50;13.50
61339;DHT22;47213;52.362;4.606;2023-04-26T17:40:07;-0.40;13.40
61339;DHT22;47213;52.362;4.606;2023-04-26T17:55:07;-0.10;14.70
61339;DHT22;47213;52.362;4.606;2023-04-26T18:10:08;-0.20;14.50
61339;DHT22;47213;52.362;4.606;2023-04-26T18:15:07;0.00;14.60
61339;DHT22;47213;52.362;4.606;2023-04-26T18:20:08;-0.10;14.60
61339;DHT22;47213;52.362;4.606;2023-04-26T18:25:08;0.00;15.00
61339;DHT22;47213;52.362;4.606;2023-04-26T18:30:08;12.70;15.10
61339;DHT22;47213;52.362;4.606;2023-04-26T18:35:08;12.60;16.10
61339;DHT22;47213;52.362;4.606;2023-04-26T18:40:08;12.50;16.50
61339;DHT22;47213;52.362;4.606;2023-04-26T18:50:08;12.40;18.10
61339;DHT22;47213;52.362;4.606;2023-04-26T19:00:08;12.30;18.80
61339;DHT22;47213;52.362;4.606;2023-04-26T19:05:08;12.20;19.80
61339;DHT22;47213;52.362;4.606;2023-04-26T19:10:08;12.10;20.60
61339;DHT22;47213;52.362;4.606;2023-04-26T19:15:08;12.00;20.90
61339;DHT22;47213;52.362;4.606;2023-04-26T19:20:08;11.80;21.90
61339;DHT22;47213;52.362;4.606;2023-04-26T19:25:08;11.70;21.90
61339;DHT22;47213;52.362;4.606;2023-04-26T19:30:08;11.50;22.40
61339;DHT22;47213;52.362;4.606;2023-04-26T19:35:08;11.40;24.10
61339;DHT22;47213;52.362;4.606;2023-04-26T19:45:08;11.10;25.30
61339;DHT22;47213;52.362;4.606;2023-04-26T19:50:08;10.90;26.40
61339;DHT22;47213;52.362;4.606;2023-04-26T19:55:08;10.70;6.00
61339;DHT22;47213;52.362;4.606;2023-04-26T20:00:08;10.40;7.50
61339;DHT22;47213;52.362;4.606;2023-04-26T20:05:08;10.30;8.30
61339;DHT22;47213;52.362;4.606;2023-04-26T20:10:08;10.10;8.30
61339;DHT22;47213;52.362;4.606;2023-04-26T20:15:08;9.90;10.70
61339;DHT22;47213;52.362;4.606;2023-04-26T20:20:08;10.10;10.70
61339;DHT22;47213;52.362;4.606;2023-04-26T20:25:08;10.30;10.30
61339;DHT22;47213;52.362;4.606;2023-04-26T20:30:08;10.60;7.20
61339;DHT22;47213;52.362;4.606;2023-04-26T20:40:08;10.40;9.30
61339;DHT22;47213;52.362;4.606;2023-04-26T20:45:08;10.00;11.30
61339;DHT22;47213;52.362;4.606;2023-04-26T20:50:08;9.70;13.60
61339;DHT22;47213;52.362;4.606;2023-04-26T20:55:08;9.50;13.60
61339;DHT22;47213;52.362;4.606;2023-04-26T21:05:08;9.40;16.60
61339;DHT22;47213;52.362;4.606;2023-04-26T21:10:08;9.20;16.60
61339;DHT22;47213;52.362;4.606;2023-04-26T21:15:08;9.00;17.90
61339;DHT22;47213;52.362;4.606;2023-04-26T21:20:08;8.90;20.50
61339;DHT22;47213;52.362;4.606;2023-04-26T21:25:08;8.80;20.50
61339;DHT22;47213;52.362;4.606;2023-04-26T21:35:08;8.90;22.70
61339;DHT22;47213;52.362;4.606;2023-04-26T21:40:08;9.20;18.70
61339;DHT22;47213;52.362;4.606;2023-04-26T21:45:08;8.90;20.80
61339;DHT22;47213;52.362;4.606;2023-04-26T21:50:08;8.70;20.80
61339;DHT22;47213;52.362;4.606;2023-04-26T22:00:08;8.50;26.20
61339;DHT22;47213;52.362;4.606;2023-04-26T22:05:08;8.40;26.90
61339;DHT22;47213;52.362;4.606;2023-04-26T22:10:08;8.50;26.10
61339;DHT22;47213;52.362;4.606;2023-04-26T22:15:08;8.80;26.10
61339;DHT22;47213;52.362;4.606;2023-04-26T22:20:08;8.70;21.70
61339;DHT22;47213;52.362;4.606;2023-04-26T22:25:08;8.50;22.00
61339;DHT22;47213;52.362;4.606;2023-04-26T22:40:08;8.80;21.80
61339;DHT22;47213;52.362;4.606;2023-04-26T22:45:08;8.60;20.70
61339;DHT22;47213;52.362;4.606;2023-04-26T23:00:08;8.30;22.90
61339;DHT22;47213;52.362;4.606;2023-04-26T23:05:08;7.90;22.90
61339;DHT22;47213;52.362;4.606;2023-04-26T23:10:08;7.70;26.70
61339;DHT22;47213;52.362;4.606;2023-04-26T23:15:08;7.50;27.00
61339;DHT22;47213;52.362;4.606;2023-04-26T23:25:08;7.40;5.80
61339;DHT22;47213;52.362;4.606;2023-04-26T23:30:08;7.30;6.10
61339;DHT22;47213;52.362;4.606;2023-04-26T23:35:08;7.20;10.20
61339;DHT22;47213;52.362;4.606;2023-04-26T23:40:09;7.50;10.20
61339;DHT22;47213;52.362;4.606;2023-04-26T23:45:08;7.60;7.60
61339;DHT22;47213;52.362;4.606;2023-04-26T23:50:08;7.40;7.00
